Time;durP1;ratioP1;P1;durP2;ratioP2;P2;SDS_P1;SDS_P2;PMS_P1;PMS_P2;Temp;Humidity;BMP_temperature;BMP_pressure;BME280_temperature;BME280_humidity;BME280_pressure;Samples;Min_cycle;Max_cycle;Signal;HPM_P1;HPM_P2
2022/01/14 00:02:03;;;;;;;8.20;4.55;;;5.40;56.00;;;;;;5072763;28;20447;-77
2022/01/14 00:04:29;;;;;;;6.40;4.35;;;5.40;56.20;;;;;;5072950;28;20427;-76
2022/01/14 00:06:56;;;;;;;7.03;4.10;;;5.40;56.30;;;;;;5073196;28;20087;-76
2022/01/14 00:09:22;;;;;;;6.05;4.38;;;5.40;56.40;;;;;;5073181;28;20020;-76
2022/01/14 00:11:53;;;;;;;7.00;4.32;;;5.40;56.50;;;;;;5072500;28;20037;-77
2022/01/14 00:14:24;;;;;;;5.80;3.85;;;5.40;56.40;;;;;;5073088;28;20108;-76
2022/01/14 00:16:50;;;;;;;8.18;3.65;;;5.40;56.40;;;;;;5072563;28;20444;-75
2022/01/14 00:19:16;;;;;;;7.10;3.63;;;5.40;56.40;;;;;;5055092;28;20025;-76
2022/01/14 00:21:44;;;;;;;5.70;4.00;;;5.40;56.60;;;;;;5072116;28;20466;-75
2022/01/14 00:24:23;;;;;;;5.45;3.90;;;5.40;56.80;;;;;;5072914;28;20103;-76
2022/01/14 00:32:10;;;;;;;6.00;3.90;;;5.40;57.20;;;;;;5072594;28;20028;-75
2022/01/14 00:34:36;;;;;;;5.18;3.70;;;5.40;57.40;;;;;;5072168;28;20116;-75
2022/01/14 00:37:03;;;;;;;6.15;4.28;;;5.40;57.50;;;;;;5072314;28;20028;-76
2022/01/14 00:39:29;;;;;;;5.45;4.05;;;5.40;57.80;;;;;;5072245;28;20517;-76
2022/01/14 00:41:55;;;;;;;5.60;3.35;;;5.40;57.90;;;;;;5072008;28;20457;-75
2022/01/14 00:44:22;;;;;;;5.78;3.92;;;5.40;58.00;;;;;;5072720;28;20032;-75
2022/01/14 00:46:49;;;;;;;6.05;3.83;;;5.40;58.20;;;;;;5072226;28;20032;-75
2022/01/14 00:49:17;;;;;;;4.85;3.60;;;5.40;58.40;;;;;;5054461;28;20082;-75
2022/01/14 00:51:43;;;;;;;6.85;3.65;;;5.40;58.70;;;;;;5071810;28;20036;-75
2022/01/14 00:54:10;;;;;;;6.32;4.22;;;5.40;58.90;;;;;;5072477;28;20020;-76
2022/01/14 00:59:16;;;;;;;7.70;4.07;;;5.50;58.80;;;;;;5072369;28;20055;-76
2022/01/14 01:01:56;;;;;;;6.20;3.83;;;5.50;58.70;;;;;;5071983;28;20032;-76
2022/01/14 01:04:33;;;;;;;6.05;3.97;;;5.50;58.60;;;;;;5072549;28;20024;-76
2022/01/14 01:07:01;;;;;;;6.13;3.90;;;5.50;58.60;;;;;;5071833;28;20024;-76
2022/01/14 01:09:29;;;;;;;5.53;3.97;;;5.50;58.90;;;;;;5072257;28;20032;-76
2022/01/14 01:12:14;;;;;;;7.55;4.00;;;5.60;58.90;;;;;;5071545;28;20048;-76
2022/01/14 01:14:49;;;;;;;8.43;4.10;;;5.60;59.00;;;;;;5071356;28;20028;-75
2022/01/14 01:17:16;;;;;;;5.70;3.70;;;5.60;59.20;;;;;;5053849;28;20029;-76
2022/01/14 01:19:42;;;;;;;5.95;3.80;;;5.60;59.10;;;;;;5053733;28;20379;-76
2022/01/14 01:22:08;;;;;;;8.95;4.13;;;5.60;59.00;;;;;;5072515;28;20074;-76
2022/01/14 01:24:35;;;;;;;7.85;4.07;;;5.60;59.10;;;;;;5072136;28;20020;-77
2022/01/14 01:27:06;;;;;;;6.05;3.58;;;5.60;59.10;;;;;;5072229;28;20024;-74
2022/01/14 01:32:08;;;;;;;6.80;3.75;;;5.50;59.20;;;;;;5072095;28;20079;-74
2022/01/14 01:34:34;;;;;;;6.43;3.90;;;5.60;59.20;;;;;;5072065;28;20025;-77
2022/01/14 01:37:01;;;;;;;5.38;3.60;;;5.50;59.40;;;;;;5071163;28;20046;-75
2022/01/14 01:39:30;;;;;;;6.60;4.00;;;5.50;59.50;;;;;;5071945;28;20025;-77
2022/01/14 01:42:00;;;;;;;5.75;3.70;;;5.50;59.80;;;;;;5071375;28;20047;-76
2022/01/14 01:44:27;;;;;;;6.32;3.40;;;5.50;59.90;;;;;;5071930;28;20476;-76
2022/01/14 01:46:54;;;;;;;6.72;3.75;;;5.60;60.00;;;;;;5071379;28;20488;-76
2022/01/14 01:49:29;;;;;;;5.47;3.65;;;5.60;60.00;;;;;;5071833;28;20108;-76
2022/01/14 01:52:14;;;;;;;5.97;3.83;;;5.60;60.00;;;;;;5071092;28;20112;-76
2022/01/14 01:54:40;;;;;;;5.45;3.70;;;5.60;60.30;;;;;;5070980;28;20028;-76
2022/01/14 01:57:06;;;;;;;5.57;3.85;;;5.60;60.20;;;;;;5071934;28;20099;-76
2022/01/14 01:59:32;;;;;;;7.05;3.75;;;5.70;60.00;;;;;;5053793;28;20135;-76
2022/01/14 02:01:59;;;;;;;5.35;3.33;;;5.70;59.80;;;;;;5071516;28;20133;-76
2022/01/14 02:04:26;;;;;;;5.95;3.47;;;5.70;59.70;;;;;;5071415;28;20473;-76
2022/01/14 02:06:54;;;;;;;6.05;3.40;;;5.70;59.40;;;;;;5071182;28;20016;-76
2022/01/14 02:09:20;;;;;;;5.57;3.65;;;5.70;59.00;;;;;;5071599;28;20025;-76
2022/01/14 02:11:46;;;;;;;4.93;3.63;;;5.70;58.70;;;;;;5071235;28;20042;-76
2022/01/14 02:14:28;;;;;;;6.05;3.53;;;5.70;58.40;;;;;;5071638;28;20116;-76
2022/01/14 02:17:16;;;;;;;5.20;3.33;;;5.70;58.30;;;;;;5071176;28;20095;-76
2022/01/14 02:22:45;;;;;;;;;;;5.60;58.40;;;;;;5071471;28;20039;-76
2022/01/14 02:25:12;;;;;;;6.43;3.35;;;5.60;58.30;;;;;;5074043;28;19912;-76
2022/01/14 02:27:38;;;;;;;5.68;3.58;;;5.60;58.50;;;;;;5074786;28;20052;-76
2022/01/14 02:30:05;;;;;;;6.03;3.55;;;5.60;58.20;;;;;;5074250;28;20465;-76
2022/01/14 02:32:31;;;;;;;4.97;3.20;;;5.60;58.10;;;;;;5074946;28;20044;-76
2022/01/14 02:34:56;;;;;;;4.82;3.05;;;5.60;58.00;;;;;;5074171;28;20466;-76
2022/01/14 02:37:23;;;;;;;5.28;3.40;;;5.60;57.90;;;;;;5074915;28;20025;-76
2022/01/14 02:39:48;;;;;;;4.95;3.47;;;5.60;57.80;;;;;;5074331;28;20027;-76
2022/01/14 02:42:14;;;;;;;5.80;3.47;;;5.50;57.60;;;;;;5074745;28;20033;-76
2022/01/14 02:44:40;;;;;;;6.40;3.17;;;5.50;57.50;;;;;;5074521;28;20024;-76
2022/01/14 02:47:07;;;;;;;4.75;3.20;;;5.50;57.40;;;;;;5056693;28;20036;-76
2022/01/14 02:49:34;;;;;;;5.95;3.00;;;5.50;56.80;;;;;;5074736;28;20029;-77
2022/01/14 02:52:03;;;;;;;4.97;3.25;;;5.50;56.50;;;;;;5073833;28;20419;-75
2022/01/14 02:54:38;;;;;;;5.28;3.28;;;5.50;56.40;;;;;;5056449;28;20136;-76
2022/01/14 02:57:06;;;;;;;5.60;3.33;;;5.50;56.50;;;;;;5074112;28;20078;-75
2022/01/14 02:59:32;;;;;;;5.50;3.03;;;5.50;56.60;;;;;;5074319;28;20489;-75
2022/01/14 03:02:02;;;;;;;6.03;3.30;;;5.50;56.70;;;;;;5056037;28;20106;-75
2022/01/14 03:04:29;;;;;;;4.77;3.03;;;5.50;56.70;;;;;;5074547;28;20024;-75
2022/01/14 03:06:55;;;;;;;5.75;3.05;;;5.50;56.70;;;;;;5073637;28;20074;-76
2022/01/14 03:09:20;;;;;;;4.80;2.95;;;5.50;56.50;;;;;;5074031;28;20025;-75
2022/01/14 03:11:49;;;;;;;6.93;3.28;;;5.50;56.60;;;;;;5073764;28;20071;-74
2022/01/14 03:14:23;;;;;;;5.18;3.00;;;5.50;56.50;;;;;;5074366;28;20017;-75
2022/01/14 03:16:50;;;;;;;4.43;3.08;;;5.50;56.40;;;;;;5055623;28;20071;-75
2022/01/14 03:19:21;;;;;;;5.13;2.97;;;5.50;56.20;;;;;;5074193;28;20029;-75
2022/01/14 03:21:50;;;;;;;7.25;3.13;;;5.50;55.90;;;;;;5073708;28;20115;-75
2022/01/14 03:26:46;;;;;;;4.78;2.88;;;5.50;56.30;;;;;;5073611;28;20027;-73
2022/01/14 03:29:13;;;;;;;8.07;3.28;;;5.50;56.40;;;;;;5074020;28;20028;-75
2022/01/14 03:31:39;;;;;;;4.75;2.83;;;5.50;56.60;;;;;;5073935;28;20373;-76
2022/01/14 03:34:06;;;;;;;4.03;2.75;;;5.50;56.70;;;;;;5073088;28;20449;-74
2022/01/14 03:36:32;;;;;;;5.85;3.28;;;5.50;56.90;;;;;;5073299;28;20455;-74
2022/01/14 03:38:57;;;;;;;4.43;3.10;;;5.50;56.70;;;;;;5073089;28;20040;-74
2022/01/14 03:41:23;;;;;;;4.80;3.17;;;5.50;56.70;;;;;;5073699;28;20029;-76
2022/01/14 03:43:49;;;;;;;5.43;3.33;;;5.50;57.00;;;;;;5073189;28;20028;-74
2022/01/14 03:46:14;;;;;;;5.75;3.33;;;5.50;57.30;;;;;;5073755;28;20021;-75
2022/01/14 03:48:40;;;;;;;6.03;3.38;;;5.50;57.60;;;;;;5073271;28;20048;-76
2022/01/14 03:51:06;;;;;;;5.72;3.67;;;5.50;57.80;;;;;;5072949;28;20072;-76
2022/01/14 03:53:31;;;;;;;5.63;3.40;;;5.50;58.00;;;;;;5055607;28;20487;-76
2022/01/14 03:55:57;;;;;;;4.95;3.47;;;5.50;58.20;;;;;;5072501;28;20131;-76
2022/01/14 03:58:23;;;;;;;4.95;4.03;;;5.40;58.30;;;;;;5073445;28;20032;-76
2022/01/14 04:00:49;;;;;;;4.65;3.45;;;5.40;58.50;;;;;;5072771;28;20423;-76
2022/01/14 04:03:15;;;;;;;6.88;3.78;;;5.40;58.80;;;;;;5073113;28;20020;-76
2022/01/14 04:05:40;;;;;;;9.43;3.42;;;5.40;59.10;;;;;;5073000;28;20142;-76
2022/01/14 04:08:06;;;;;;;6.15;3.75;;;5.40;59.20;;;;;;5072726;28;20334;-75
2022/01/14 04:10:32;;;;;;;5.55;3.88;;;5.40;59.30;;;;;;5073414;28;20037;-76
2022/01/14 04:13:02;;;;;;;6.53;3.95;;;5.40;59.50;;;;;;5072500;28;20040;-76
2022/01/14 04:15:38;;;;;;;6.60;4.15;;;5.40;59.70;;;;;;5072987;28;20031;-76
2022/01/14 04:18:09;;;;;;;6.25;4.22;;;5.40;60.40;;;;;;5072531;28;20051;-75
2022/01/14 04:20:37;;;;;;;5.85;3.72;;;5.40;60.10;;;;;;5072950;28;20035;-76
2022/01/14 04:23:06;;;;;;;7.20;4.20;;;5.30;60.20;;;;;;5072159;28;20163;-76
2022/01/14 04:25:33;;;;;;;6.15;4.38;;;5.30;60.50;;;;;;5072813;28;20024;-76
2022/01/14 04:27:59;;;;;;;5.63;3.70;;;5.30;60.90;;;;;;5072390;28;20024;-76
2022/01/14 04:30:25;;;;;;;7.18;4.32;;;5.30;61.00;;;;;;5073009;28;20035;-77
2022/01/14 04:32:51;;;;;;;6.72;4.07;;;5.30;61.10;;;;;;5071827;28;20025;-74
2022/01/14 04:35:17;;;;;;;5.88;3.92;;;5.30;61.50;;;;;;5072620;28;20028;-74
2022/01/14 04:37:43;;;;;;;7.03;4.03;;;5.20;61.80;;;;;;5054682;28;20403;-76
2022/01/14 04:40:10;;;;;;;8.43;4.85;;;5.20;62.20;;;;;;5072084;28;20035;-76
2022/01/14 04:42:37;;;;;;;6.80;4.38;;;5.20;62.40;;;;;;5072421;28;20028;-76
2022/01/14 04:45:04;;;;;;;6.47;4.30;;;5.20;62.60;;;;;;5072011;28;20026;-76
2022/01/14 04:47:44;;;;;;;7.10;4.38;;;5.30;62.80;;;;;;5071720;28;20523;-76
2022/01/14 04:50:11;;;;;;;6.68;3.90;;;5.20;62.70;;;;;;5072093;28;20183;-76
2022/01/14 04:52:39;;;;;;;6.13;3.85;;;5.20;62.50;;;;;;5054205;28;20060;-76
2022/01/14 04:55:06;;;;;;;6.68;3.60;;;5.30;62.30;;;;;;5071593;28;20472;-76
2022/01/14 04:57:32;;;;;;;6.07;3.85;;;5.20;62.00;;;;;;5072501;28;20043;-76
2022/01/14 04:59:57;;;;;;;7.53;4.13;;;5.20;61.80;;;;;;5072085;28;20029;-76
2022/01/14 05:02:23;;;;;;;6.53;3.42;;;5.20;61.80;;;;;;5072392;28;20103;-76
2022/01/14 05:04:49;;;;;;;6.22;3.38;;;5.20;61.80;;;;;;5071963;28;20500;-76
2022/01/14 05:07:24;;;;;;;6.65;3.30;;;5.30;62.10;;;;;;5071473;28;20056;-76
2022/01/14 05:10:07;;;;;;;5.57;3.38;;;5.30;62.00;;;;;;5072251;28;20107;-76
2022/01/14 05:12:40;;;;;;;5.97;3.13;;;5.30;62.50;;;;;;5054096;28;20124;-76
2022/01/14 05:15:07;;;;;;;7.18;3.53;;;5.30;62.60;;;;;;5071665;28;20074;-76
2022/01/14 05:17:33;;;;;;;5.47;3.40;;;5.40;63.00;;;;;;5072064;28;20025;-77
2022/01/14 05:19:59;;;;;;;7.50;3.15;;;5.40;62.90;;;;;;5071304;28;20358;-75
2022/01/14 05:22:26;;;;;;;4.03;3.03;;;5.40;62.80;;;;;;5071678;28;20031;-77
2022/01/14 05:24:52;;;;;;;6.85;3.15;;;5.40;63.00;;;;;;5071574;28;20020;-76
2022/01/14 05:27:18;;;;;;;5.95;3.35;;;5.40;62.90;;;;;;5071872;28;20048;-76
2022/01/14 05:29:43;;;;;;;4.95;3.25;;;5.40;63.10;;;;;;5071722;28;20068;-77
2022/01/14 05:32:13;;;;;;;7.80;3.13;;;5.40;63.40;;;;;;5070494;28;20039;-76
2022/01/14 05:34:40;;;;;;;6.32;3.25;;;5.50;63.50;;;;;;5071767;28;20028;-77
2022/01/14 05:37:06;;;;;;;8.43;3.45;;;5.50;63.70;;;;;;5053434;28;20060;-77
2022/01/14 05:39:33;;;;;;;6.22;3.50;;;5.50;63.70;;;;;;5071949;28;20025;-77
2022/01/14 05:42:00;;;;;;;6.45;3.25;;;5.50;63.50;;;;;;5071310;28;20063;-78
2022/01/14 05:44:29;;;;;;;4.82;3.50;;;5.50;63.70;;;;;;5071826;28;20518;-78
2022/01/14 05:46:56;;;;;;;8.90;3.45;;;5.50;63.80;;;;;;5071483;28;20028;-74
2022/01/14 05:49:23;;;;;;;7.18;3.22;;;5.50;63.90;;;;;;5071768;28;20081;-76
2022/01/14 05:51:49;;;;;;;5.47;3.53;;;5.50;63.80;;;;;;5071918;28;20033;-78
2022/01/14 05:54:16;;;;;;;5.65;3.53;;;5.50;63.70;;;;;;5071314;28;20082;-76
2022/01/14 05:56:42;;;;;;;6.38;3.60;;;5.50;63.60;;;;;;5072009;28;20067;-76
2022/01/14 05:59:08;;;;;;;6.63;3.60;;;5.50;63.70;;;;;;5072218;28;20029;-76
2022/01/14 06:01:34;;;;;;;9.48;3.47;;;5.50;63.80;;;;;;5075213;28;20028;-76
2022/01/14 06:04:01;;;;;;;5.55;3.13;;;5.50;63.90;;;;;;5074924;28;20016;-76
2022/01/14 06:06:27;;;;;;;9.05;3.90;;;5.50;64.00;;;;;;5075464;28;20028;-76
2022/01/14 06:08:53;;;;;;;5.50;3.25;;;5.50;64.00;;;;;;5057497;28;20446;-77
2022/01/14 06:11:20;;;;;;;5.43;3.40;;;5.50;63.70;;;;;;5074813;28;20393;-77
2022/01/14 06:13:46;;;;;;;4.55;3.13;;;5.50;63.50;;;;;;5075297;28;20032;-77
2022/01/14 06:16:12;;;;;;;4.55;3.03;;;5.50;63.00;;;;;;5074906;28;20060;-77
2022/01/14 06:18:38;;;;;;;5.30;2.90;;;5.50;62.60;;;;;;5057264;28;20116;-77
2022/01/14 06:21:04;;;;;;;4.63;3.08;;;5.50;62.50;;;;;;5074640;28;20103;-77
2022/01/14 06:23:30;;;;;;;6.43;3.35;;;5.50;62.20;;;;;;5075206;28;20067;-77
2022/01/14 06:25:56;;;;;;;4.60;3.00;;;5.50;62.20;;;;;;5075072;28;20043;-77
2022/01/14 06:28:22;;;;;;;4.00;2.60;;;5.50;62.10;;;;;;5075157;28;20056;-78
2022/01/14 06:30:48;;;;;;;4.00;2.85;;;5.50;62.10;;;;;;5075081;28;20059;-78
2022/01/14 06:33:14;;;;;;;4.18;2.40;;;5.50;62.20;;;;;;5074069;28;20108;-76
2022/01/14 06:35:40;;;;;;;4.20;2.35;;;5.60;62.10;;;;;;5056728;28;20020;-76
2022/01/14 06:38:06;;;;;;;4.18;2.20;;;5.50;62.10;;;;;;5056494;28;20073;-76
2022/01/14 06:40:32;;;;;;;7.28;3.05;;;5.60;62.20;;;;;;5074882;28;20347;-77
2022/01/14 06:42:58;;;;;;;4.60;2.75;;;5.50;62.20;;;;;;5074754;28;20029;-72
2022/01/14 06:45:24;;;;;;;6.38;2.80;;;5.50;62.00;;;;;;5074701;28;20469;-76
2022/01/14 06:47:51;;;;;;;12.85;3.40;;;5.50;61.90;;;;;;5074463;28;20082;-76
2022/01/14 06:50:17;;;;;;;5.97;3.67;;;5.60;61.90;;;;;;5074239;28;20035;-76
2022/01/14 06:52:43;;;;;;;7.95;2.70;;;5.50;61.70;;;;;;5074630;28;20039;-77
2022/01/14 06:55:09;;;;;;;7.45;3.33;;;5.60;61.50;;;;;;5074371;28;20052;-78
2022/01/14 06:57:38;;;;;;;8.35;3.97;;;5.60;61.50;;;;;;5074620;28;20085;-77
2022/01/14 07:00:09;;;;;;;5.10;2.75;;;5.60;61.40;;;;;;5074023;28;20024;-77
2022/01/14 07:02:35;;;;;;;10.13;3.03;;;5.60;61.50;;;;;;5074448;28;20119;-77
2022/01/14 07:05:01;;;;;;;8.18;3.35;;;5.60;61.80;;;;;;5073690;28;20060;-76
2022/01/14 07:07:26;;;;;;;7.95;2.63;;;5.60;61.90;;;;;;5056368;28;20381;-77
2022/01/14 07:09:58;;;;;;;8.38;3.22;;;5.60;62.20;;;;;;5073997;28;20024;-77
2022/01/14 07:12:32;;;;;;;4.97;2.40;;;5.60;62.30;;;;;;5072728;28;20547;-77
2022/01/14 07:14:58;;;;;;;7.22;2.92;;;5.60;62.30;;;;;;5074513;28;20021;-78
2022/01/14 07:17:25;;;;;;;7.28;2.80;;;5.60;62.40;;;;;;5073578;28;20067;-78
2022/01/14 07:19:53;;;;;;;5.93;2.90;;;5.60;62.20;;;;;;5056057;28;20028;-78
2022/01/14 07:22:42;;;;;;;6.43;3.10;;;5.60;62.20;;;;;;5073591;28;20460;-78
2022/01/14 07:25:09;;;;;;;9.10;3.78;;;5.70;61.80;;;;;;5055538;28;20025;-78
2022/01/14 07:27:35;;;;;;;7.55;2.95;;;5.70;61.80;;;;;;5074112;28;20046;-77
2022/01/14 07:30:02;;;;;;;7.22;3.17;;;5.80;61.60;;;;;;5073911;28;20031;-78
2022/01/14 07:32:46;;;;;;;6.75;3.38;;;5.80;61.40;;;;;;5073758;28;20033;-77
2022/01/14 07:35:12;;;;;;;7.88;3.53;;;5.80;61.40;;;;;;5073026;28;20028;-77
2022/01/14 07:37:38;;;;;;;6.40;4.40;;;5.80;61.30;;;;;;5073534;28;20027;-77
2022/01/14 07:40:05;;;;;;;5.60;3.83;;;5.90;61.20;;;;;;5072987;28;20080;-76
2022/01/14 07:42:30;;;;;;;8.52;3.55;;;5.90;61.70;;;;;;5073574;28;20056;-77
2022/01/14 07:44:56;;;;;;;7.47;4.00;;;5.90;61.30;;;;;;5073681;28;20125;-78
2022/01/14 07:47:22;;;;;;;11.05;3.58;;;6.00;61.20;;;;;;5073170;28;20466;-78
2022/01/14 07:49:47;;;;;;;5.70;3.90;;;6.00;61.20;;;;;;5073517;28;20415;-78
2022/01/14 07:52:13;;;;;;;8.07;3.40;;;6.10;61.20;;;;;;5072917;28;20035;-78
2022/01/14 07:54:39;;;;;;;5.82;3.08;;;6.10;61.20;;;;;;5072947;28;20529;-78
2022/01/14 07:57:07;;;;;;;5.53;3.42;;;6.10;60.90;;;;;;5072946;28;20033;-77
2022/01/14 07:59:34;;;;;;;8.23;3.53;;;6.10;60.80;;;;;;5073274;28;20024;-78
2022/01/14 08:02:01;;;;;;;6.93;3.60;;;6.20;60.60;;;;;;5073054;28;20025;-78
2022/01/14 08:04:27;;;;;;;6.47;3.17;;;6.20;60.30;;;;;;5072643;28;20029;-78
2022/01/14 08:06:57;;;;;;;6.25;3.33;;;6.30;60.10;;;;;;5055165;28;20063;-78
2022/01/14 08:09:23;;;;;;;5.47;3.25;;;6.40;60.10;;;;;;5072622;28;20025;-78
2022/01/14 08:11:49;;;;;;;8.52;3.70;;;6.50;59.50;;;;;;5073053;28;20039;-78
2022/01/14 08:14:14;;;;;;;7.22;3.13;;;6.60;59.20;;;;;;5072538;28;20047;-79
2022/01/14 08:16:40;;;;;;;8.40;3.30;;;6.70;58.80;;;;;;5072685;28;20025;-78
2022/01/14 08:19:06;;;;;;;4.65;2.78;;;6.70;58.50;;;;;;5072204;28;20110;-77
2022/01/14 08:21:32;;;;;;;6.47;3.00;;;6.80;58.40;;;;;;5072600;28;20028;-78
2022/01/14 08:23:58;;;;;;;5.15;2.92;;;6.90;58.20;;;;;;5054711;28;20031;-77
2022/01/14 08:26:24;;;;;;;5.47;2.78;;;7.00;58.00;;;;;;5072199;28;20037;-78
2022/01/14 08:29:08;;;;;;;5.68;2.42;;;7.00;57.70;;;;;;5072927;28;20029;-78
2022/01/14 08:31:34;;;;;;;10.88;3.00;;;7.10;57.50;;;;;;5072762;28;20032;-78
2022/01/14 08:34:00;;;;;;;11.93;2.90;;;7.20;57.20;;;;;;5072594;28;20031;-79
2022/01/14 08:36:28;;;;;;;7.55;2.78;;;7.20;56.60;;;;;;5072051;28;20112;-79
2022/01/14 08:38:54;;;;;;;8.93;2.60;;;7.20;56.40;;;;;;5072606;28;20020;-79
2022/01/14 08:41:20;;;;;;;4.35;2.47;;;7.30;56.20;;;;;;5072100;28;20384;-79
2022/01/14 08:43:47;;;;;;;7.15;2.67;;;7.30;56.10;;;;;;5072489;28;20021;-78
2022/01/14 08:46:13;;;;;;;3.67;2.70;;;7.40;56.30;;;;;;5072003;28;20025;-78
2022/01/14 08:48:39;;;;;;;5.75;2.58;;;7.40;56.20;;;;;;5072423;28;20079;-78
2022/01/14 08:51:06;;;;;;;6.85;2.75;;;7.40;56.40;;;;;;5072455;28;20037;-79
2022/01/14 08:53:32;;;;;;;9.85;3.00;;;7.40;56.40;;;;;;5072118;28;20070;-78
2022/01/14 08:55:58;;;;;;;4.88;2.60;;;7.50;56.40;;;;;;5072010;28;20056;-78
2022/01/14 08:58:23;;;;;;;3.88;2.55;;;7.50;56.30;;;;;;5071831;28;20056;-79
2022/01/14 09:00:49;;;;;;;4.88;3.00;;;7.50;56.30;;;;;;5072283;28;20020;-79
2022/01/14 09:03:15;;;;;;;6.05;2.55;;;7.50;56.10;;;;;;5072102;28;20056;-79
2022/01/14 09:05:41;;;;;;;7.22;3.15;;;7.50;56.20;;;;;;5072434;28;20033;-79
2022/01/14 09:08:06;;;;;;;5.13;3.17;;;7.50;56.50;;;;;;5054139;28;20028;-79
2022/01/14 09:10:32;;;;;;;6.68;2.95;;;7.60;56.80;;;;;;5071916;28;20027;-79
2022/01/14 09:12:58;;;;;;;5.90;3.00;;;7.60;56.70;;;;;;5072196;28;20033;-79
2022/01/14 09:15:24;;;;;;;7.57;2.53;;;7.60;56.80;;;;;;5071621;28;20025;-79
2022/01/14 09:17:50;;;;;;;5.28;2.53;;;7.60;56.70;;;;;;5072050;28;20029;-79
2022/01/14 09:20:16;;;;;;;6.65;2.80;;;7.60;56.80;;;;;;5053577;28;20044;-78
2022/01/14 09:22:48;;;;;;;4.22;2.53;;;7.70;57.00;;;;;;5072130;28;20031;-79
2022/01/14 09:25:15;;;;;;;4.25;2.75;;;7.70;57.10;;;;;;5071647;28;20016;-78
2022/01/14 09:27:41;;;;;;;3.30;2.50;;;7.80;57.30;;;;;;5071886;28;20468;-78
2022/01/14 09:30:07;;;;;;;7.05;2.97;;;7.80;57.10;;;;;;5071847;28;20059;-78
2022/01/14 09:32:33;;;;;;;4.68;2.70;;;7.80;56.90;;;;;;5071255;28;20442;-78
2022/01/14 09:35:03;;;;;;;4.35;2.50;;;7.80;56.80;;;;;;5074385;28;20031;-78
2022/01/14 09:37:29;;;;;;;6.15;2.92;;;7.90;56.70;;;;;;5075586;28;20103;-78
2022/01/14 09:39:54;;;;;;;6.40;2.85;;;7.90;56.60;;;;;;5076308;28;20108;-79
2022/01/14 09:42:20;;;;;;;5.68;3.10;;;7.90;56.20;;;;;;5075618;28;20028;-78
2022/01/14 09:44:45;;;;;;;6.38;3.08;;;8.00;56.20;;;;;;5075955;28;20025;-78
2022/01/14 09:47:19;;;;;;;5.40;2.88;;;8.00;55.90;;;;;;5075394;28;20428;-74
2022/01/14 09:49:45;;;;;;;4.10;2.90;;;8.00;55.50;;;;;;5075726;28;20025;-79
2022/01/14 09:52:13;;;;;;;5.05;2.50;;;8.10;55.40;;;;;;5075497;28;20039;-79
2022/01/14 09:54:41;;;;;;;3.88;2.63;;;8.20;55.70;;;;;;5075584;28;20036;-78
2022/01/14 09:57:08;;;;;;;5.53;2.20;;;8.20;54.90;;;;;;5076061;28;20048;-79
2022/01/14 09:59:34;;;;;;;8.80;2.78;;;8.30;54.60;;;;;;5074942;28;20020;-79
2022/01/14 10:02:00;;;;;;;4.43;3.10;;;8.40;54.20;;;;;;5075240;28;20033;-79
2022/01/14 10:04:26;;;;;;;3.33;2.35;;;8.40;54.20;;;;;;5075165;28;20024;-79
2022/01/14 10:07:00;;;;;;;6.53;2.85;;;8.50;53.90;;;;;;5075333;28;20454;-79
2022/01/14 10:09:39;;;;;;;3.70;2.72;;;8.70;53.90;;;;;;5075080;28;20028;-79
2022/01/14 10:12:15;;;;;;;4.20;2.67;;;8.80;53.90;;;;;;5074918;28;20024;-78
2022/01/14 10:14:51;;;;;;;6.10;2.65;;;8.90;54.00;;;;;;5075307;28;20017;-79
2022/01/14 10:17:17;;;;;;;7.97;2.95;;;9.00;54.00;;;;;;5074609;28;20035;-78
2022/01/14 10:19:45;;;;;;;4.90;2.90;;;9.20;54.20;;;;;;5075427;28;20028;-79
2022/01/14 10:22:47;;;;;;;6.63;2.90;;;9.30;54.50;;;;;;5057367;28;20493;-79
2022/01/14 10:25:18;;;;;;;5.25;2.88;;;9.40;54.10;;;;;;5075104;28;20033;-78
2022/01/14 10:27:46;;;;;;;;;;;9.50;54.00;;;;;;5075415;28;20028;-78
2022/01/14 10:30:33;;;;;;;4.00;2.58;;;9.60;53.90;;;;;;5075338;28;20004;-79
2022/01/14 10:33:04;;;;;;;4.78;2.45;;;9.70;53.60;;;;;;5074821;28;20108;-78
2022/01/14 10:35:35;;;;;;;3.60;2.47;;;9.70;53.60;;;;;;5074295;28;20052;-79
2022/01/14 10:38:04;;;;;;;4.70;2.90;;;9.80;53.30;;;;;;5074590;28;20024;-78
2022/01/14 10:40:34;;;;;;;4.45;2.17;;;9.90;53.40;;;;;;5074318;28;20028;-79
2022/01/14 10:43:03;;;;;;;5.82;2.58;;;10.00;53.10;;;;;;5074739;28;20036;-78
2022/01/14 10:45:29;;;;;;;3.45;1.88;;;10.10;53.10;;;;;;5072877;28;20032;-78
2022/01/14 10:48:03;;;;;;;3.38;2.05;;;10.20;52.80;;;;;;5074779;28;20028;-79
2022/01/14 10:50:45;;;;;;;5.88;2.40;;;10.30;52.60;;;;;;5073925;28;20035;-80
2022/01/14 10:53:38;;;;;;;5.32;2.40;;;10.40;52.40;;;;;;5074454;28;20033;-79
2022/01/14 10:56:08;;;;;;;3.72;2.28;;;10.40;52.50;;;;;;5053794;28;20121;-79
2022/01/14 10:58:42;;;;;;;2.40;1.77;;;10.50;52.30;;;;;;5073742;28;20028;-80
2022/01/14 11:01:12;;;;;;;7.28;2.22;;;10.60;52.10;;;;;;5074602;28;20258;-79
2022/01/14 11:03:37;;;;;;;6.45;2.20;;;10.60;52.60;;;;;;5073384;28;20457;-79
2022/01/14 11:06:26;;;;;;;4.53;2.13;;;10.60;52.40;;;;;;5074193;28;20051;-79
2022/01/14 11:09:09;;;;;;;4.53;2.10;;;10.70;52.60;;;;;;5056213;28;20043;-79
2022/01/14 11:11:37;;;;;;;4.90;1.88;;;10.70;52.80;;;;;;5073223;28;20033;-79
2022/01/14 11:14:04;;;;;;;3.90;1.98;;;10.70;52.90;;;;;;5074188;28;20027;-79
2022/01/14 11:16:30;;;;;;;4.47;2.17;;;10.70;53.00;;;;;;5073547;28;20052;-79
2022/01/14 11:18:59;;;;;;;4.82;2.17;;;10.70;52.80;;;;;;5073853;28;20025;-79
2022/01/14 11:24:23;;;;;;;6.38;2.28;;;10.70;52.50;;;;;;5074079;28;20031;-79
2022/01/14 11:26:52;;;;;;;4.72;1.98;;;10.60;52.40;;;;;;5073591;28;20438;-78
2022/01/14 11:29:21;;;;;;;5.47;2.42;;;10.60;51.90;;;;;;5073686;28;20025;-80
2022/01/14 11:31:59;;;;;;;7.10;2.30;;;10.60;52.10;;;;;;5073620;28;20037;-79
2022/01/14 11:34:39;;;;;;;3.97;2.28;;;10.60;52.10;;;;;;5073346;28;20063;-78
2022/01/14 11:37:07;;;;;;;7.97;2.45;;;10.60;52.00;;;;;;5073832;28;20462;-79
2022/01/14 11:39:36;;;;;;;4.53;2.30;;;10.60;51.80;;;;;;5073154;28;20450;-79
2022/01/14 11:42:04;;;;;;;4.82;2.15;;;10.70;52.00;;;;;;5073371;28;20485;-79
2022/01/14 11:44:55;;;;;;;5.40;2.15;;;10.70;52.10;;;;;;5054947;28;20031;-78
2022/01/14 11:47:45;;;;;;;2.88;2.10;;;10.70;51.90;;;;;;5072855;28;20527;-76
2022/01/14 11:50:23;;;;;;;2.90;1.98;;;10.70;52.40;;;;;;5073645;28;20052;-78
2022/01/14 11:52:49;;;;;;;5.90;1.88;;;10.70;52.50;;;;;;5073277;28;20033;-79
2022/01/14 11:55:21;;;;;;;3.15;2.20;;;10.70;52.50;;;;;;5055213;28;20098;-79
2022/01/14 11:57:49;;;;;;;3.05;1.92;;;10.70;52.50;;;;;;5072678;28;20463;-79
2022/01/14 12:00:27;;;;;;;7.32;1.90;;;10.70;52.20;;;;;;5072879;28;20031;-79
2022/01/14 12:03:11;;;;;;;3.67;1.92;;;10.80;52.10;;;;;;5073163;28;20062;-80
2022/01/14 12:05:38;;;;;;;3.90;1.65;;;10.80;52.30;;;;;;5072476;28;20401;-80
2022/01/14 12:08:04;;;;;;;2.95;1.85;;;10.80;52.10;;;;;;5055290;28;20477;-79
2022/01/14 12:10:39;;;;;;;4.00;2.10;;;10.80;51.90;;;;;;5054587;28;20120;-78
2022/01/14 12:13:38;;;;;;;2.65;1.85;;;10.80;51.70;;;;;;5072692;28;20110;-79
2022/01/14 12:16:19;;;;;;;3.97;1.83;;;10.80;51.60;;;;;;5073032;28;20028;-79
2022/01/14 12:18:57;;;;;;;5.50;2.17;;;10.80;51.30;;;;;;5072806;28;20135;-79
2022/01/14 12:21:37;;;;;;;3.95;2.13;;;10.80;51.30;;;;;;5072764;28;20115;-79
2022/01/14 12:24:30;;;;;;;5.55;2.03;;;10.80;50.80;;;;;;5072814;28;20107;-78
2022/01/14 12:27:03;;;;;;;2.83;1.80;;;10.80;50.70;;;;;;5046768;28;20062;-78
2022/01/14 12:29:44;;;;;;;6.47;2.47;;;10.80;50.50;;;;;;5072213;28;20119;-78
2022/01/14 12:32:13;;;;;;;3.87;1.80;;;10.80;50.40;;;;;;5054891;28;20315;-80
2022/01/14 12:35:01;;;;;;;4.55;1.85;;;10.80;50.20;;;;;;5072191;28;20016;-80
2022/01/14 12:37:32;;;;;;;2.80;1.80;;;10.90;50.10;;;;;;5072291;28;20107;-78
2022/01/14 12:40:12;;;;;;;2.20;1.50;;;10.90;50.30;;;;;;5054622;28;20058;-80
2022/01/14 12:42:39;;;;;;;4.05;2.35;;;10.80;50.40;;;;;;5072029;28;20064;-79
2022/01/14 12:45:07;;;;;;;4.53;2.00;;;10.80;50.70;;;;;;5072493;28;20048;-80
2022/01/14 12:47:39;;;;;;;3.92;1.90;;;10.80;50.90;;;;;;5072093;28;20544;-79
2022/01/14 12:50:11;;;;;;;3.58;2.05;;;10.80;51.30;;;;;;5072510;28;20036;-80
2022/01/14 12:52:49;;;;;;;4.88;2.20;;;10.80;51.50;;;;;;5071968;28;20040;-80
2022/01/14 12:55:15;;;;;;;2.63;1.83;;;10.80;51.80;;;;;;5054169;28;20481;-79
2022/01/14 12:57:41;;;;;;;2.35;1.90;;;10.70;51.60;;;;;;5071874;28;20028;-80
2022/01/14 13:00:09;;;;;;;2.63;1.67;;;10.70;51.60;;;;;;5072238;28;20040;-78
2022/01/14 13:02:35;;;;;;;4.93;1.77;;;10.70;50.90;;;;;;5071669;28;20024;-79
2022/01/14 13:05:07;;;;;;;4.38;1.92;;;10.70;50.40;;;;;;5072203;28;20028;-79
2022/01/14 13:07:34;;;;;;;3.10;1.75;;;10.70;49.70;;;;;;5071732;28;20052;-78
2022/01/14 13:10:01;;;;;;;3.67;1.92;;;10.70;49.10;;;;;;5071257;28;20025;-80
2022/01/14 13:12:33;;;;;;;4.05;1.50;;;10.60;48.20;;;;;;5071752;28;20068;-75
2022/01/14 13:15:02;;;;;;;6.30;2.28;;;10.60;47.70;;;;;;5072138;28;20021;-80
2022/01/14 13:17:38;;;;;;;3.58;1.58;;;10.60;48.20;;;;;;5071581;28;20442;-80
2022/01/14 13:20:07;;;;;;;2.08;1.70;;;10.60;48.30;;;;;;5071937;28;20032;-80
2022/01/14 13:22:34;;;;;;;2.83;2.15;;;10.50;49.00;;;;;;5071176;28;20521;-78
2022/01/14 13:25:07;;;;;;;3.17;1.70;;;10.50;49.50;;;;;;5072034;28;20024;-79